createdAt,value
2019-04-03T00:03:46.605Z,32.41
2019-04-03T00:07:52.340Z,32.57
2019-04-03T00:11:58.028Z,32.55
2019-04-03T00:16:03.768Z,32.52
2019-04-03T00:20:09.937Z,32.92
2019-04-03T00:24:15.597Z,32.84
2019-04-03T00:28:22.368Z,33.06
2019-04-03T00:32:28.501Z,33.33
2019-04-03T00:36:34.359Z,33.44
2019-04-03T00:40:40.112Z,33.57
2019-04-03T00:44:45.806Z,33.87
2019-04-03T00:48:51.484Z,33.89
2019-04-03T00:52:57.806Z,33.87
2019-04-03T00:57:03.819Z,33.95
2019-04-03T01:01:12.220Z,33.90
2019-04-03T01:05:18.065Z,34.22
2019-04-03T01:09:23.892Z,34.26
2019-04-03T01:13:31.298Z,34.76
2019-04-03T01:17:37.340Z,34.82
2019-04-03T01:21:44.118Z,36.97
2019-04-03T01:25:49.813Z,37.76
2019-04-03T01:29:55.494Z,40.22
2019-04-03T01:34:01.188Z,41.68
2019-04-03T01:38:07.065Z,40.31
2019-04-03T01:42:12.836Z,40.88
2019-04-03T01:46:18.536Z,42.23
2019-04-03T01:50:24.234Z,44.49
2019-04-03T01:54:29.926Z,43.03
2019-04-03T01:58:36.348Z,45.99
2019-04-03T02:02:42.697Z,44.76
2019-04-03T02:06:48.429Z,44.97
2019-04-03T02:10:54.258Z,46.81
2019-04-03T02:14:59.956Z,45.68
2019-04-03T02:19:05.984Z,47.31
2019-04-03T02:23:11.890Z,46.53
2019-04-03T02:27:17.753Z,47.58
2019-04-03T02:31:23.678Z,47.12
2019-04-03T02:35:29.383Z,46.14
2019-04-03T02:39:35.156Z,45.48
2019-04-03T02:43:41.087Z,46.01
2019-04-03T02:47:46.891Z,45.69
2019-04-03T02:51:53.750Z,47.22
2019-04-03T02:55:59.748Z,48.34
2019-04-03T03:00:08.592Z,48.17
2019-04-03T03:04:14.833Z,47.95
2019-04-03T03:08:22.721Z,47.93
2019-04-03T03:12:28.996Z,47.61
2019-04-03T03:16:35.921Z,49.00
2019-04-03T03:20:42.844Z,51.11
2019-04-03T03:24:49.563Z,51.23
2019-04-03T03:28:55.621Z,51.18
2019-04-03T03:33:24.545Z,52.32
2019-04-03T03:37:12.673Z,50.62
2019-04-03T03:41:22.660Z,51.52
2019-04-03T03:45:30.855Z,51.38
2019-04-03T03:49:37.400Z,50.33
2019-04-03T03:53:45.442Z,50.20
2019-04-03T03:57:52.330Z,51.28
2019-04-03T04:01:58.200Z,51.29
2019-04-03T04:06:04.734Z,52.77
2019-04-03T04:10:11.026Z,52.79
2019-04-03T04:14:21.461Z,52.31
2019-04-03T04:18:26.053Z,51.69
2019-04-03T04:22:32.969Z,52.24
2019-04-03T04:26:38.716Z,52.84
2019-04-03T04:30:48.457Z,53.44
2019-04-03T04:34:54.155Z,54.02
2019-04-03T04:38:59.847Z,54.70
2019-04-03T04:43:07.669Z,53.92
2019-04-03T04:47:15.032Z,54.75
2019-04-03T04:51:20.550Z,54.53
2019-04-03T04:55:26.246Z,55.61
2019-04-03T04:59:31.988Z,54.01
2019-04-03T05:03:37.823Z,53.66
2019-04-03T05:07:43.669Z,52.85
2019-04-03T05:11:49.281Z,52.29
2019-04-03T05:15:55.067Z,52.46
2019-04-03T05:20:00.956Z,53.70
2019-04-03T05:24:13.199Z,55.07
2019-04-03T05:28:14.204Z,55.04
2019-04-03T05:32:19.875Z,56.02
2019-04-03T05:36:25.859Z,55.77
2019-04-03T05:40:31.644Z,56.26
2019-04-03T05:44:37.597Z,56.67
2019-04-03T05:48:43.724Z,55.00
2019-04-03T05:52:51.038Z,54.73
2019-04-03T05:56:56.713Z,54.04
2019-04-03T06:01:05.979Z,54.14
2019-04-03T06:05:12.750Z,53.92
2019-04-03T06:09:17.830Z,54.02
2019-04-03T06:13:23.509Z,54.16
2019-04-03T06:17:29.203Z,54.70
2019-04-03T06:21:34.990Z,53.76
2019-04-03T06:25:40.688Z,54.85
2019-04-03T06:29:46.360Z,54.04
2019-04-03T06:33:52.250Z,53.52
2019-04-03T06:37:58.104Z,53.46
2019-04-03T06:42:03.837Z,52.61
2019-04-03T06:46:09.531Z,52.36
2019-04-03T06:50:17.561Z,52.07
2019-04-03T06:54:23.324Z,52.30
2019-04-03T06:58:37.254Z,53.43
2019-04-03T07:02:36.593Z,51.97
2019-04-03T07:06:42.816Z,51.70
2019-04-03T07:10:54.959Z,52.30
2019-04-03T07:14:57.063Z,51.62
2019-04-03T07:19:02.753Z,50.22
2019-04-03T07:23:08.543Z,49.49
2019-04-03T07:27:15.131Z,50.01
2019-04-03T07:31:23.263Z,51.03
2019-04-03T07:35:28.714Z,48.68
2019-04-03T07:39:34.401Z,49.71
2019-04-03T07:43:40.318Z,49.19
2019-04-03T07:47:46.051Z,48.26
2019-04-03T07:51:51.953Z,47.21
2019-04-03T07:55:57.662Z,47.09
2019-04-03T08:00:06.123Z,44.62
2019-04-03T08:04:11.153Z,42.10
2019-04-03T08:08:16.868Z,41.51
2019-04-03T08:12:23.633Z,42.16
2019-04-03T08:16:29.336Z,44.02
2019-04-03T08:20:35.025Z,44.66
2019-04-03T08:24:40.829Z,45.77
2019-04-03T08:28:46.738Z,46.09
2019-04-03T08:32:52.644Z,45.67
2019-04-03T08:37:01.271Z,46.77
2019-04-03T08:41:05.849Z,46.07
2019-04-03T08:45:12.692Z,46.82
2019-04-03T08:49:18.387Z,47.65
2019-04-03T08:53:24.085Z,47.22
2019-04-03T08:57:29.782Z,47.29
2019-04-03T09:01:37.261Z,45.94
2019-04-03T09:05:43.127Z,46.53
2019-04-03T09:09:48.838Z,46.53
2019-04-03T09:13:55.697Z,45.55
2019-04-03T09:18:01.776Z,46.26
2019-04-03T09:22:07.482Z,45.31
2019-04-03T09:26:13.170Z,44.73
2019-04-03T09:30:20.645Z,43.93
2019-04-03T09:34:28.868Z,44.72
2019-04-03T09:38:35.468Z,45.12
2019-04-03T09:42:41.160Z,44.50
2019-04-03T09:46:46.900Z,43.64
2019-04-03T09:50:52.604Z,43.37
2019-04-03T09:55:00.301Z,42.99
2019-04-03T09:59:06.736Z,42.43
2019-04-03T10:03:12.930Z,41.09
2019-04-03T10:07:18.650Z,40.49
2019-04-03T10:11:24.634Z,41.49
2019-04-03T10:15:31.211Z,41.83
2019-04-03T10:19:38.534Z,41.83
2019-04-03T10:23:44.487Z,41.17
2019-04-03T10:27:50.183Z,41.18
2019-04-03T10:31:56.288Z,41.53
2019-04-03T10:36:02.250Z,40.29
2019-04-03T10:40:10.156Z,38.24
2019-04-03T10:44:16.192Z,32.51
2019-04-03T10:48:21.868Z,29.62
2019-04-03T10:52:27.559Z,27.25
2019-04-03T10:56:33.383Z,27.26
2019-04-03T11:00:39.466Z,27.28
2019-04-03T11:04:45.460Z,24.73
2019-04-03T11:08:51.137Z,26.30
2019-04-03T11:12:56.831Z,24.39
2019-04-03T11:17:02.792Z,22.98
2019-04-03T11:21:09.124Z,23.69
2019-04-03T11:25:16.123Z,23.65
2019-04-03T11:29:21.906Z,22.64
2019-04-03T11:33:27.777Z,20.97
2019-04-03T11:37:33.870Z,20.79
2019-04-03T11:41:39.638Z,20.40
2019-04-03T11:45:45.579Z,19.76
2019-04-03T11:49:52.389Z,20.27
2019-04-03T11:53:59.838Z,18.85
2019-04-03T11:58:06.952Z,18.44
2019-04-03T12:02:13.934Z,20.41
2019-04-03T12:06:21.054Z,21.77
2019-04-03T12:10:26.901Z,21.00
2019-04-03T12:14:32.565Z,23.18
2019-04-03T12:18:38.314Z,24.55
2019-04-03T12:22:44.305Z,26.00
2019-04-03T12:26:51.510Z,32.38
2019-04-03T12:30:57.458Z,34.73
2019-04-03T12:35:03.536Z,37.31
2019-04-03T12:39:15.743Z,38.63
2019-04-03T12:43:21.471Z,38.91
2019-04-03T12:47:28.324Z,39.39
2019-04-03T12:51:34.353Z,40.06
2019-04-03T12:55:42.193Z,40.34
2019-04-03T12:59:48.113Z,40.19
2019-04-03T13:03:55.948Z,39.41
2019-04-03T13:08:01.297Z,36.73
2019-04-03T13:12:08.036Z,36.71
2019-04-03T13:16:13.807Z,35.39
2019-04-03T13:20:20.775Z,36.57
2019-04-03T13:24:26.461Z,38.17
2019-04-03T13:28:33.473Z,39.61
2019-04-03T13:32:39.660Z,38.42
2019-04-03T13:36:45.394Z,37.17
2019-04-03T13:40:51.086Z,34.53
2019-04-03T13:44:58.848Z,33.07
2019-04-03T13:49:05.135Z,33.16
2019-04-03T13:53:10.862Z,35.00
2019-04-03T13:57:16.691Z,37.90
2019-04-03T14:01:23.739Z,39.18
2019-04-03T14:05:32.277Z,39.05
2019-04-03T14:09:37.153Z,39.87
2019-04-03T14:13:44.213Z,39.94
2019-04-03T14:17:56.683Z,40.18
2019-04-03T14:22:00.626Z,38.72
2019-04-03T14:26:08.463Z,38.11
2019-04-03T14:30:14.562Z,38.95
2019-04-03T14:34:20.247Z,40.75
2019-04-03T14:38:27.722Z,41.67
2019-04-03T14:42:33.449Z,42.46
2019-04-03T14:46:39.195Z,38.71
2019-04-03T14:50:45.898Z,39.87
2019-04-03T14:54:51.657Z,40.12
2019-04-03T14:58:58.926Z,40.59
2019-04-03T15:03:05.408Z,40.50
2019-04-03T15:07:11.083Z,40.81
2019-04-03T15:11:16.846Z,42.09
2019-04-03T15:15:22.625Z,40.70
2019-04-03T15:19:30.163Z,42.34
2019-04-03T15:23:40.216Z,43.05
2019-04-03T15:27:43.180Z,45.28
2019-04-03T15:31:49.217Z,45.97
2019-04-03T15:35:55.350Z,45.34
2019-04-03T15:40:19.230Z,45.35
2019-04-03T15:44:27.459Z,46.38
2019-04-03T15:49:17.645Z,45.75
2019-04-03T15:53:24.148Z,46.15
2019-04-03T15:57:30.917Z,46.29
2019-04-03T16:01:37.107Z,48.13
2019-04-03T16:05:44.288Z,48.80
2019-04-03T16:09:51.292Z,50.43
2019-04-03T16:13:57.307Z,51.03
2019-04-03T16:18:06.291Z,52.89
2019-04-03T16:22:16.231Z,57.93
2019-04-03T16:26:23.804Z,56.20
2019-04-03T16:30:29.791Z,51.89
2019-04-03T16:34:35.741Z,53.56
2019-04-03T16:38:41.508Z,51.62
2019-04-03T16:42:47.949Z,52.48
2019-04-03T16:46:54.684Z,52.74
2019-04-03T16:51:00.988Z,52.72
2019-04-03T16:55:09.168Z,54.94
2019-04-03T16:59:15.409Z,53.12
2019-04-03T17:03:21.474Z,52.13
2019-04-03T17:07:27.191Z,52.87
2019-04-03T17:11:33.471Z,51.67
2019-04-03T17:15:39.193Z,51.83
2019-04-03T17:19:44.955Z,51.12
2019-04-03T17:23:51.080Z,52.41
2019-04-03T17:27:58.937Z,53.52
2019-04-03T17:37:04.833Z,53.90
2019-04-03T17:41:19.480Z,52.11
2019-04-03T17:45:25.250Z,52.04
2019-04-03T17:49:31.086Z,50.01
2019-04-03T17:53:37.209Z,52.55
2019-04-03T17:57:45.306Z,50.96
2019-04-03T18:01:52.171Z,49.54
2019-04-03T18:05:57.996Z,51.56
2019-04-03T18:10:06.135Z,52.49
2019-04-03T18:14:12.818Z,49.68
2019-04-03T18:18:18.768Z,51.36
2019-04-03T18:22:24.488Z,50.74
2019-04-03T18:26:30.641Z,53.84
2019-04-03T18:30:37.088Z,52.80
2019-04-03T18:34:42.805Z,50.52
2019-04-03T18:38:48.641Z,51.26
2019-04-03T18:44:21.909Z,51.65
2019-04-03T18:53:19.070Z,51.78
2019-04-03T18:57:24.771Z,53.00
2019-04-03T19:02:18.539Z,53.88
2019-04-03T19:11:17.670Z,54.09
2019-04-03T19:15:24.623Z,53.59
2019-04-03T19:20:18.909Z,53.91
2019-04-03T19:24:25.167Z,53.46
2019-04-03T19:29:15.956Z,53.02
2019-04-03T19:33:21.776Z,51.31
2019-04-03T19:37:27.863Z,51.96
2019-04-03T19:41:33.653Z,52.29
2019-04-03T19:46:18.133Z,50.42
2019-04-03T19:50:24.073Z,50.89
2019-04-03T19:54:29.906Z,52.57
2019-04-03T19:58:36.077Z,51.40
2019-04-03T20:02:42.992Z,50.56
2019-04-03T20:06:49.402Z,50.75
2019-04-03T20:10:55.185Z,51.45
2019-04-03T20:15:02.347Z,52.00
2019-04-03T20:19:20.376Z,51.96
2019-04-03T20:23:26.079Z,52.59
2019-04-03T20:27:31.865Z,53.07
2019-04-03T20:31:40.581Z,51.80
2019-04-03T20:35:44.996Z,53.25
2019-04-03T20:39:52.424Z,52.95
2019-04-03T20:43:58.159Z,53.42
2019-04-03T20:48:19.289Z,52.41
2019-04-03T20:52:25.035Z,52.81
2019-04-03T20:56:30.737Z,53.76
2019-04-03T21:00:36.563Z,51.41
2019-04-03T21:04:42.315Z,51.54
2019-04-03T21:08:47.988Z,52.12
2019-04-03T21:12:53.692Z,52.01
2019-04-03T21:17:18.896Z,52.70
2019-04-03T21:21:25.709Z,52.21
2019-04-03T21:25:31.880Z,52.61
2019-04-03T21:29:37.512Z,52.82
2019-04-03T21:33:45.082Z,53.02
2019-04-03T21:37:50.708Z,51.59
2019-04-03T21:41:56.547Z,51.40
2019-04-03T21:46:17.571Z,50.23
2019-04-03T21:50:23.223Z,47.79
2019-04-03T21:54:29.875Z,49.75
2019-04-03T21:58:35.613Z,48.32
2019-04-03T22:02:41.305Z,50.47
2019-04-03T22:06:47.007Z,51.27
2019-04-03T22:10:52.824Z,50.35
2019-04-03T22:14:58.726Z,50.56
2019-04-03T22:19:04.541Z,52.07
2019-04-03T22:23:11.238Z,51.30
2019-04-03T22:27:16.908Z,50.22
2019-04-03T22:31:22.822Z,50.50
2019-04-03T22:35:30.166Z,51.46
2019-04-03T22:39:38.719Z,51.57
2019-04-03T22:43:44.169Z,52.13
2019-04-03T22:47:51.395Z,51.93
2019-04-03T22:51:57.067Z,51.84
2019-04-03T22:56:02.951Z,51.30
2019-04-03T23:00:09.452Z,50.74
2019-04-03T23:04:16.757Z,50.32
2019-04-03T23:08:22.783Z,51.27
2019-04-03T23:12:28.913Z,51.32
2019-04-03T23:16:34.766Z,51.44
2019-04-03T23:20:40.490Z,50.74
2019-04-03T23:24:46.181Z,51.52
2019-04-03T23:28:51.899Z,51.76
2019-04-03T23:32:57.716Z,50.25
2019-04-03T23:37:03.486Z,53.08
2019-04-03T23:41:09.237Z,52.83
2019-04-03T23:45:15.138Z,49.54
2019-04-03T23:49:20.850Z,54.47
2019-04-03T23:53:26.511Z,51.67
2019-04-03T23:57:32.213Z,51.61
